sensor_id;sensor_type;location;lat;lon;timestamp;pressure;altitude;pressure_sealevel;temperature;humidity
35507;BME280;36461;52.018;21.036;2023-03-16T00:01:25;100482.71;;;-0.42;75.60
35507;BME280;36461;52.018;21.036;2023-03-16T00:03:53;100481.85;;;-0.43;75.73
35507;BME280;36461;52.018;21.036;2023-03-16T00:06:21;100481.98;;;-0.45;75.72
35507;BME280;36461;52.018;21.036;2023-03-16T00:08:52;100479.58;;;-0.47;75.84
35507;BME280;36461;52.018;21.036;2023-03-16T00:11:25;100489.04;;;-0.52;75.83
35507;BME280;36461;52.018;21.036;2023-03-16T00:13:53;100494.09;;;-0.56;75.74
35507;BME280;36461;52.018;21.036;2023-03-16T00:16:21;100492.30;;;-0.61;75.77
35507;BME280;36461;52.018;21.036;2023-03-16T00:18:49;100493.30;;;-0.63;76.05
35507;BME280;36461;52.018;21.036;2023-03-16T00:21:16;100499.23;;;-0.64;76.01
35507;BME280;36461;52.018;21.036;2023-03-16T00:23:44;100500.05;;;-0.65;76.26
35507;BME280;36461;52.018;21.036;2023-03-16T00:26:12;100504.29;;;-0.65;76.26
35507;BME280;36461;52.018;21.036;2023-03-16T00:28:40;100507.17;;;-0.66;76.30
35507;BME280;36461;52.018;21.036;2023-03-16T00:31:10;100510.89;;;-0.68;76.32
35507;BME280;36461;52.018;21.036;2023-03-16T00:33:39;100507.14;;;-0.69;76.53
35507;BME280;36461;52.018;21.036;2023-03-16T00:36:10;100508.30;;;-0.71;76.58
35507;BME280;36461;52.018;21.036;2023-03-16T00:38:39;100509.95;;;-0.73;76.73
35507;BME280;36461;52.018;21.036;2023-03-16T00:41:13;100510.42;;;-0.75;76.72
35507;BME280;36461;52.018;21.036;2023-03-16T00:43:42;100512.95;;;-0.77;76.90
35507;BME280;36461;52.018;21.036;2023-03-16T00:46:15;100511.22;;;-0.79;77.02
35507;BME280;36461;52.018;21.036;2023-03-16T00:48:45;100511.35;;;-0.82;77.01
35507;BME280;36461;52.018;21.036;2023-03-16T00:51:16;100515.56;;;-0.85;77.26
35507;BME280;36461;52.018;21.036;2023-03-16T00:53:45;100520.98;;;-0.86;77.39
35507;BME280;36461;52.018;21.036;2023-03-16T00:56:14;100522.83;;;-0.87;77.23
35507;BME280;36461;52.018;21.036;2023-03-16T00:58:43;100523.28;;;-0.89;77.42
35507;BME280;36461;52.018;21.036;2023-03-16T01:01:16;100527.52;;;-0.90;77.29
35507;BME280;36461;52.018;21.036;2023-03-16T01:03:45;100525.30;;;-0.92;77.53
35507;BME280;36461;52.018;21.036;2023-03-16T01:06:15;100528.18;;;-0.91;77.79
35507;BME280;36461;52.018;21.036;2023-03-16T01:08:43;100525.63;;;-0.92;77.81
35507;BME280;36461;52.018;21.036;2023-03-16T01:11:15;100522.20;;;-0.93;77.64
35507;BME280;36461;52.018;21.036;2023-03-16T01:13:44;100521.00;;;-0.94;77.72
35507;BME280;36461;52.018;21.036;2023-03-16T01:16:16;100522.16;;;-0.96;77.75
35507;BME280;36461;52.018;21.036;2023-03-16T01:18:50;100527.74;;;-0.97;77.83
35507;BME280;36461;52.018;21.036;2023-03-16T01:21:19;100531.44;;;-0.99;77.85
35507;BME280;36461;52.018;21.036;2023-03-16T01:23:50;100529.21;;;-1.00;77.89
35507;BME280;36461;52.018;21.036;2023-03-16T01:26:20;100532.27;;;-1.02;77.86
35507;BME280;36461;52.018;21.036;2023-03-16T01:28:49;100528.14;;;-1.04;78.04
35507;BME280;36461;52.018;21.036;2023-03-16T01:31:16;100526.41;;;-1.05;77.92
35507;BME280;36461;52.018;21.036;2023-03-16T01:33:44;100529.11;;;-1.07;77.78
35507;BME280;36461;52.018;21.036;2023-03-16T01:36:18;100535.18;;;-1.09;78.06
35507;BME280;36461;52.018;21.036;2023-03-16T01:38:52;100533.60;;;-1.12;77.93
35507;BME280;36461;52.018;21.036;2023-03-16T01:41:21;100533.66;;;-1.18;77.97
35507;BME280;36461;52.018;21.036;2023-03-16T01:43:49;100535.80;;;-1.22;78.10
35507;BME280;36461;52.018;21.036;2023-03-16T01:46:21;100536.93;;;-1.25;78.16
35507;BME280;36461;52.018;21.036;2023-03-16T01:48:57;100540.62;;;-1.28;78.00
35507;BME280;36461;52.018;21.036;2023-03-16T01:51:41;100541.41;;;-1.31;78.29
35507;BME280;36461;52.018;21.036;2023-03-16T01:54:14;100540.95;;;-1.37;78.16
35507;BME280;36461;52.018;21.036;2023-03-16T01:56:57;100546.65;;;-1.41;78.28
35507;BME280;36461;52.018;21.036;2023-03-16T01:59:32;100544.70;;;-1.45;78.45
35507;BME280;36461;52.018;21.036;2023-03-16T02:02:02;100543.82;;;-1.47;78.35
35507;BME280;36461;52.018;21.036;2023-03-16T02:07:14;100546.14;;;-1.50;78.52
35507;BME280;36461;52.018;21.036;2023-03-16T02:09:47;100548.81;;;-1.52;78.61
35507;BME280;36461;52.018;21.036;2023-03-16T02:12:17;100551.70;;;-1.53;78.65
35507;BME280;36461;52.018;21.036;2023-03-16T02:14:49;100549.27;;;-1.55;78.71
35507;BME280;36461;52.018;21.036;2023-03-16T02:17:23;100548.41;;;-1.56;78.81
35507;BME280;36461;52.018;21.036;2023-03-16T02:22:44;100555.65;;;-1.59;78.64
35507;BME280;36461;52.018;21.036;2023-03-16T02:25:15;100558.46;;;-1.61;78.75
35507;BME280;36461;52.018;21.036;2023-03-16T02:28:18;100557.59;;;-1.63;78.68
35507;BME280;36461;52.018;21.036;2023-03-16T02:30:45;100563.67;;;-1.64;78.96
35507;BME280;36461;52.018;21.036;2023-03-16T02:33:15;100562.95;;;-1.66;78.81
35507;BME280;36461;52.018;21.036;2023-03-16T02:35:43;100572.59;;;-1.68;78.95
35507;BME280;36461;52.018;21.036;2023-03-16T02:38:12;100569.70;;;-1.69;78.89
35507;BME280;36461;52.018;21.036;2023-03-16T02:41:00;100574.27;;;-1.69;78.92
35507;BME280;36461;52.018;21.036;2023-03-16T02:43:37;100573.23;;;-1.70;78.94
35507;BME280;36461;52.018;21.036;2023-03-16T02:46:18;100575.38;;;-1.72;78.93
35507;BME280;36461;52.018;21.036;2023-03-16T02:51:22;100580.68;;;-1.79;78.89
35507;BME280;36461;52.018;21.036;2023-03-16T02:53:50;100585.32;;;-1.84;78.91
35507;BME280;36461;52.018;21.036;2023-03-16T02:56:19;100586.77;;;-1.88;78.91
35507;BME280;36461;52.018;21.036;2023-03-16T02:58:47;100591.27;;;-1.91;79.09
35507;BME280;36461;52.018;21.036;2023-03-16T03:01:17;100591.34;;;-1.96;79.05
35507;BME280;36461;52.018;21.036;2023-03-16T03:03:45;100589.22;;;-2.00;79.17
35507;BME280;36461;52.018;21.036;2023-03-16T03:06:13;100597.45;;;-2.04;79.40
35507;BME280;36461;52.018;21.036;2023-03-16T03:08:41;100596.67;;;-2.07;79.37
35507;BME280;36461;52.018;21.036;2023-03-16T03:11:10;100598.83;;;-2.11;79.50
35507;BME280;36461;52.018;21.036;2023-03-16T03:13:39;100601.63;;;-2.14;79.50
35507;BME280;36461;52.018;21.036;2023-03-16T03:16:14;100606.81;;;-2.16;79.47
35507;BME280;36461;52.018;21.036;2023-03-16T03:18:43;100604.73;;;-2.19;79.54
35507;BME280;36461;52.018;21.036;2023-03-16T03:21:11;100606.23;;;-2.20;79.74
35507;BME280;36461;52.018;21.036;2023-03-16T03:23:40;100604.85;;;-2.21;79.72
35507;BME280;36461;52.018;21.036;2023-03-16T03:26:09;100610.76;;;-2.22;79.76
35507;BME280;36461;52.018;21.036;2023-03-16T03:28:37;100610.72;;;-2.24;79.58
35507;BME280;36461;52.018;21.036;2023-03-16T03:31:06;100610.85;;;-2.25;79.88
35507;BME280;36461;52.018;21.036;2023-03-16T03:33:34;100612.70;;;-2.27;79.57
35507;BME280;36461;52.018;21.036;2023-03-16T03:36:03;100617.90;;;-2.28;79.74
35507;BME280;36461;52.018;21.036;2023-03-16T03:38:35;100620.41;;;-2.30;79.65
35507;BME280;36461;52.018;21.036;2023-03-16T03:41:04;100624.91;;;-2.33;79.76
35507;BME280;36461;52.018;21.036;2023-03-16T03:43:37;100626.55;;;-2.35;79.72
35507;BME280;36461;52.018;21.036;2023-03-16T03:46:06;100630.61;;;-2.36;79.76
35507;BME280;36461;52.018;21.036;2023-03-16T03:48:34;100636.71;;;-2.35;79.86
35507;BME280;36461;52.018;21.036;2023-03-16T03:51:02;100643.12;;;-2.37;79.84
35507;BME280;36461;52.018;21.036;2023-03-16T03:53:42;100646.23;;;-2.41;79.70
35507;BME280;36461;52.018;21.036;2023-03-16T03:56:36;100646.86;;;-2.43;79.79
35507;BME280;36461;52.018;21.036;2023-03-16T03:59:05;100649.19;;;-2.45;79.81
35507;BME280;36461;52.018;21.036;2023-03-16T04:01:56;100646.61;;;-2.47;80.15
35507;BME280;36461;52.018;21.036;2023-03-16T04:04:27;100646.90;;;-2.49;80.14
35507;BME280;36461;52.018;21.036;2023-03-16T04:06:55;100647.19;;;-2.51;80.13
35507;BME280;36461;52.018;21.036;2023-03-16T04:09:24;100649.69;;;-2.52;80.20
35507;BME280;36461;52.018;21.036;2023-03-16T04:11:56;100649.45;;;-2.55;80.18
35507;BME280;36461;52.018;21.036;2023-03-16T04:14:28;100646.80;;;-2.59;80.23
35507;BME280;36461;52.018;21.036;2023-03-16T04:17:00;100651.66;;;-2.62;80.45
35507;BME280;36461;52.018;21.036;2023-03-16T04:19:35;100654.98;;;-2.64;80.62
35507;BME280;36461;52.018;21.036;2023-03-16T04:22:09;100663.05;;;-2.66;80.56
35507;BME280;36461;52.018;21.036;2023-03-16T04:24:41;100666.44;;;-2.66;80.60
35507;BME280;36461;52.018;21.036;2023-03-16T04:27:13;100671.68;;;-2.67;80.66
35507;BME280;36461;52.018;21.036;2023-03-16T04:29:46;100668.95;;;-2.67;80.70
35507;BME280;36461;52.018;21.036;2023-03-16T04:32:17;100668.27;;;-2.68;80.95
35507;BME280;36461;52.018;21.036;2023-03-16T04:34:49;100671.99;;;-2.68;80.79
35507;BME280;36461;52.018;21.036;2023-03-16T04:37:34;100672.35;;;-2.67;80.94
35507;BME280;36461;52.018;21.036;2023-03-16T04:40:05;100677.63;;;-2.66;81.05
35507;BME280;36461;52.018;21.036;2023-03-16T04:42:49;100678.02;;;-2.64;80.96
35507;BME280;36461;52.018;21.036;2023-03-16T04:45:22;100681.09;;;-2.63;80.98
35507;BME280;36461;52.018;21.036;2023-03-16T04:47:53;100679.95;;;-2.62;80.98
35507;BME280;36461;52.018;21.036;2023-03-16T04:50:25;100683.70;;;-2.61;80.98
35507;BME280;36461;52.018;21.036;2023-03-16T04:52:57;100681.85;;;-2.60;81.14
35507;BME280;36461;52.018;21.036;2023-03-16T04:55:28;100685.95;;;-2.59;80.97
35507;BME280;36461;52.018;21.036;2023-03-16T04:58:00;100691.86;;;-2.60;80.74
35507;BME280;36461;52.018;21.036;2023-03-16T05:00:34;100690.47;;;-2.61;80.68
35507;BME280;36461;52.018;21.036;2023-03-16T05:03:15;100697.90;;;-2.62;80.69
35507;BME280;36461;52.018;21.036;2023-03-16T05:05:48;100700.75;;;-2.63;80.71
35507;BME280;36461;52.018;21.036;2023-03-16T05:08:18;100701.23;;;-2.63;80.60
35507;BME280;36461;52.018;21.036;2023-03-16T05:18:23;100700.76;;;-2.56;81.24
35507;BME280;36461;52.018;21.036;2023-03-16T05:20:53;100702.77;;;-2.57;81.11
35507;BME280;36461;52.018;21.036;2023-03-16T05:23:23;100702.13;;;-2.56;81.16
35507;BME280;36461;52.018;21.036;2023-03-16T05:25:56;100708.04;;;-2.57;81.21
35507;BME280;36461;52.018;21.036;2023-03-16T05:28:29;100709.49;;;-2.59;81.11
35507;BME280;36461;52.018;21.036;2023-03-16T05:31:01;100711.33;;;-2.60;81.26
35507;BME280;36461;52.018;21.036;2023-03-16T05:33:36;100712.68;;;-2.60;81.39
35507;BME280;36461;52.018;21.036;2023-03-16T05:36:07;100713.05;;;-2.59;81.39
35507;BME280;36461;52.018;21.036;2023-03-16T05:38:36;100716.64;;;-2.58;81.68
35507;BME280;36461;52.018;21.036;2023-03-16T05:41:07;100716.89;;;-2.55;82.01
35507;BME280;36461;52.018;21.036;2023-03-16T05:43:48;100716.67;;;-2.50;82.22
35507;BME280;36461;52.018;21.036;2023-03-16T05:46:16;100719.02;;;-2.44;82.22
35507;BME280;36461;52.018;21.036;2023-03-16T05:48:48;100718.97;;;-2.40;82.24
35507;BME280;36461;52.018;21.036;2023-03-16T05:51:16;100717.21;;;-2.36;82.26
35507;BME280;36461;52.018;21.036;2023-03-16T05:53:44;100718.34;;;-2.32;82.41
35507;BME280;36461;52.018;21.036;2023-03-16T05:56:20;100715.60;;;-2.26;82.58
35507;BME280;36461;52.018;21.036;2023-03-16T05:58:50;100720.16;;;-2.20;82.55
35507;BME280;36461;52.018;21.036;2023-03-16T06:01:19;100721.44;;;-2.16;82.81
35507;BME280;36461;52.018;21.036;2023-03-16T06:03:48;100723.95;;;-2.11;82.66
35507;BME280;36461;52.018;21.036;2023-03-16T06:06:20;100726.14;;;-2.05;82.93
35507;BME280;36461;52.018;21.036;2023-03-16T06:09:00;100726.98;;;-1.98;83.03
35507;BME280;36461;52.018;21.036;2023-03-16T06:11:28;100730.70;;;-1.92;82.97
35507;BME280;36461;52.018;21.036;2023-03-16T06:13:56;100725.42;;;-1.86;83.31
35507;BME280;36461;52.018;21.036;2023-03-16T06:16:25;100727.75;;;-1.80;83.16
35507;BME280;36461;52.018;21.036;2023-03-16T06:18:53;100727.57;;;-1.73;83.22
35507;BME280;36461;52.018;21.036;2023-03-16T06:21:26;100729.26;;;-1.66;83.46
35507;BME280;36461;52.018;21.036;2023-03-16T06:23:55;100729.86;;;-1.62;83.40
35507;BME280;36461;52.018;21.036;2023-03-16T06:26:24;100732.50;;;-1.58;83.10
35507;BME280;36461;52.018;21.036;2023-03-16T06:28:52;100732.27;;;-1.54;83.26
35507;BME280;36461;52.018;21.036;2023-03-16T06:31:21;100733.58;;;-1.48;83.36
35507;BME280;36461;52.018;21.036;2023-03-16T06:33:50;100736.61;;;-1.41;83.52
35507;BME280;36461;52.018;21.036;2023-03-16T06:36:19;100736.40;;;-1.36;83.46
35507;BME280;36461;52.018;21.036;2023-03-16T06:38:50;100738.09;;;-1.27;83.54
35507;BME280;36461;52.018;21.036;2023-03-16T06:41:31;100736.79;;;-1.17;83.67
35507;BME280;36461;52.018;21.036;2023-03-16T06:44:02;100740.20;;;-1.09;83.54
35507;BME280;36461;52.018;21.036;2023-03-16T06:46:34;100741.41;;;-0.99;83.31
35507;BME280;36461;52.018;21.036;2023-03-16T06:49:03;100745.84;;;-0.91;83.61
35507;BME280;36461;52.018;21.036;2023-03-16T06:51:32;100753.88;;;-0.79;83.60
35507;BME280;36461;52.018;21.036;2023-03-16T06:54:00;100751.90;;;-0.68;83.48
35507;BME280;36461;52.018;21.036;2023-03-16T06:56:29;100754.95;;;-0.59;83.37
35507;BME280;36461;52.018;21.036;2023-03-16T06:58:58;100757.94;;;-0.45;83.38
35507;BME280;36461;52.018;21.036;2023-03-16T07:01:26;100754.59;;;-0.33;83.21
35507;BME280;36461;52.018;21.036;2023-03-16T07:03:54;100756.84;;;-0.21;83.19
35507;BME280;36461;52.018;21.036;2023-03-16T07:06:26;100757.05;;;-0.09;82.91
35507;BME280;36461;52.018;21.036;2023-03-16T07:08:55;100761.52;;;0.03;82.82
35507;BME280;36461;52.018;21.036;2023-03-16T07:11:23;100763.38;;;0.13;82.69
35507;BME280;36461;52.018;21.036;2023-03-16T07:13:51;100768.83;;;0.24;82.64
35507;BME280;36461;52.018;21.036;2023-03-16T07:16:21;100770.20;;;0.35;82.50
35507;BME280;36461;52.018;21.036;2023-03-16T07:18:49;100774.80;;;0.46;82.32
35507;BME280;36461;52.018;21.036;2023-03-16T07:21:19;100777.00;;;0.57;82.35
35507;BME280;36461;52.018;21.036;2023-03-16T07:23:47;100775.61;;;0.66;82.36
35507;BME280;36461;52.018;21.036;2023-03-16T07:26:19;100775.89;;;0.73;81.73
35507;BME280;36461;52.018;21.036;2023-03-16T07:28:52;100774.97;;;0.80;81.72
35507;BME280;36461;52.018;21.036;2023-03-16T07:31:20;100775.75;;;0.87;81.52
35507;BME280;36461;52.018;21.036;2023-03-16T07:33:48;100776.52;;;0.94;81.40
35507;BME280;36461;52.018;21.036;2023-03-16T07:36:21;100781.88;;;1.00;81.01
35507;BME280;36461;52.018;21.036;2023-03-16T07:38:53;100780.79;;;1.09;80.99
35507;BME280;36461;52.018;21.036;2023-03-16T07:41:22;100783.64;;;1.17;80.43
35507;BME280;36461;52.018;21.036;2023-03-16T07:43:50;100781.01;;;1.25;80.24
35507;BME280;36461;52.018;21.036;2023-03-16T07:46:18;100784.00;;;1.33;80.15
35507;BME280;36461;52.018;21.036;2023-03-16T07:48:46;100783.42;;;1.42;79.91
35507;BME280;36461;52.018;21.036;2023-03-16T07:51:14;100782.49;;;1.51;79.49
35507;BME280;36461;52.018;21.036;2023-03-16T07:53:46;100783.95;;;1.59;79.70
35507;BME280;36461;52.018;21.036;2023-03-16T07:56:20;100787.63;;;1.66;79.10
35507;BME280;36461;52.018;21.036;2023-03-16T07:58:51;100787.34;;;1.73;78.92
35507;BME280;36461;52.018;21.036;2023-03-16T08:01:20;100789.64;;;1.79;78.86
35507;BME280;36461;52.018;21.036;2023-03-16T08:03:49;100785.29;;;1.88;78.34
35507;BME280;36461;52.018;21.036;2023-03-16T08:06:19;100783.80;;;1.94;78.30
35507;BME280;36461;52.018;21.036;2023-03-16T08:08:48;100790.15;;;1.97;77.67
35507;BME280;36461;52.018;21.036;2023-03-16T08:11:22;100787.32;;;2.04;77.89
35507;BME280;36461;52.018;21.036;2023-03-16T08:13:58;100786.69;;;2.11;77.62
35507;BME280;36461;52.018;21.036;2023-03-16T08:16:34;100787.77;;;2.16;77.77
35507;BME280;36461;52.018;21.036;2023-03-16T08:19:04;100788.99;;;2.20;77.40
35507;BME280;36461;52.018;21.036;2023-03-16T08:21:32;100786.48;;;2.26;77.44
35507;BME280;36461;52.018;21.036;2023-03-16T08:24:12;100787.70;;;2.31;77.43
35507;BME280;36461;52.018;21.036;2023-03-16T08:26:40;100792.54;;;2.36;77.20
35507;BME280;36461;52.018;21.036;2023-03-16T08:29:09;100794.63;;;2.41;76.87
35507;BME280;36461;52.018;21.036;2023-03-16T08:31:37;100797.25;;;2.49;76.55
35507;BME280;36461;52.018;21.036;2023-03-16T08:34:12;100798.35;;;2.57;76.27
35507;BME280;36461;52.018;21.036;2023-03-16T08:36:43;100797.54;;;2.65;76.61
35507;BME280;36461;52.018;21.036;2023-03-16T08:39:13;100798.60;;;2.71;76.39
35507;BME280;36461;52.018;21.036;2023-03-16T08:41:45;100797.09;;;2.75;75.97
35507;BME280;36461;52.018;21.036;2023-03-16T08:44:27;100800.54;;;2.80;75.76
35507;BME280;36461;52.018;21.036;2023-03-16T08:46:56;100808.27;;;2.83;75.23
35507;BME280;36461;52.018;21.036;2023-03-16T08:49:24;100810.34;;;2.90;75.47
35507;BME280;36461;52.018;21.036;2023-03-16T08:52:00;100806.48;;;3.00;75.26
35507;BME280;36461;52.018;21.036;2023-03-16T08:54:27;100802.26;;;3.11;75.37
35507;BME280;36461;52.018;21.036;2023-03-16T08:56:57;100807.62;;;3.21;74.94
35507;BME280;36461;52.018;21.036;2023-03-16T08:59:25;100806.64;;;3.32;74.81
35507;BME280;36461;52.018;21.036;2023-03-16T09:01:57;100808.23;;;3.43;74.48
35507;BME280;36461;52.018;21.036;2023-03-16T09:04:26;100811.50;;;3.50;73.99
35507;BME280;36461;52.018;21.036;2023-03-16T09:06:55;100809.30;;;3.56;73.89
35507;BME280;36461;52.018;21.036;2023-03-16T09:09:36;100813.25;;;3.63;73.43
35507;BME280;36461;52.018;21.036;2023-03-16T09:12:04;100812.60;;;3.72;73.70
35507;BME280;36461;52.018;21.036;2023-03-16T09:14:33;100811.95;;;3.82;73.14
35507;BME280;36461;52.018;21.036;2023-03-16T09:17:04;100810.41;;;3.92;72.43
35507;BME280;36461;52.018;21.036;2023-03-16T09:19:33;100806.52;;;4.04;72.17
35507;BME280;36461;52.018;21.036;2023-03-16T09:22:19;100810.29;;;4.24;71.90
35507;BME280;36461;52.018;21.036;2023-03-16T09:24:47;100813.55;;;4.34;71.71
35507;BME280;36461;52.018;21.036;2023-03-16T09:27:16;100817.14;;;4.41;71.25
35507;BME280;36461;52.018;21.036;2023-03-16T09:29:44;100816.80;;;4.42;70.92
35507;BME280;36461;52.018;21.036;2023-03-16T09:32:12;100812.86;;;4.46;70.15
35507;BME280;36461;52.018;21.036;2023-03-16T09:34:41;100813.04;;;4.46;70.21
35507;BME280;36461;52.018;21.036;2023-03-16T09:37:09;100812.35;;;4.56;70.22
35507;BME280;36461;52.018;21.036;2023-03-16T09:39:37;100809.77;;;4.67;69.84
35507;BME280;36461;52.018;21.036;2023-03-16T09:42:13;100813.68;;;4.81;69.88
35507;BME280;36461;52.018;21.036;2023-03-16T09:45:03;100815.71;;;5.00;69.45
35507;BME280;36461;52.018;21.036;2023-03-16T09:47:33;100816.69;;;5.22;69.04
35507;BME280;36461;52.018;21.036;2023-03-16T09:50:06;100817.54;;;5.26;67.81
35507;BME280;36461;52.018;21.036;2023-03-16T09:57:57;100819.64;;;5.11;66.25
35507;BME280;36461;52.018;21.036;2023-03-16T10:05:47;100824.09;;;5.15;65.31
35507;BME280;36461;52.018;21.036;2023-03-16T10:08:24;100822.49;;;5.30;65.46
35507;BME280;36461;52.018;21.036;2023-03-16T10:17:25;100815.50;;;6.25;64.44
35507;BME280;36461;52.018;21.036;2023-03-16T10:20:04;100809.91;;;6.35;63.96
35507;BME280;36461;52.018;21.036;2023-03-16T10:22:41;100816.19;;;6.45;63.54
35507;BME280;36461;52.018;21.036;2023-03-16T10:25:22;100817.30;;;6.36;63.10
35507;BME280;36461;52.018;21.036;2023-03-16T10:27:52;100826.30;;;6.27;62.48
35507;BME280;36461;52.018;21.036;2023-03-16T10:30:24;100820.09;;;6.30;62.07
35507;BME280;36461;52.018;21.036;2023-03-16T10:32:56;100821.80;;;6.32;61.76
35507;BME280;36461;52.018;21.036;2023-03-16T10:38:06;100826.60;;;6.32;60.20
35507;BME280;36461;52.018;21.036;2023-03-16T10:40:38;100824.49;;;6.16;59.91
35507;BME280;36461;52.018;21.036;2023-03-16T10:43:12;100829.69;;;6.09;59.95
35507;BME280;36461;52.018;21.036;2023-03-16T10:45:41;100827.09;;;6.13;59.61
35507;BME280;36461;52.018;21.036;2023-03-16T10:48:15;100824.73;;;6.30;59.84
35507;BME280;36461;52.018;21.036;2023-03-16T10:50:55;100825.48;;;6.66;59.29
35507;BME280;36461;52.018;21.036;2023-03-16T10:53:29;100820.23;;;7.09;58.70
35507;BME280;36461;52.018;21.036;2023-03-16T10:56:07;100819.78;;;7.49;58.24
35507;BME280;36461;52.018;21.036;2023-03-16T10:58:40;100820.62;;;7.77;58.03
35507;BME280;36461;52.018;21.036;2023-03-16T11:01:17;100817.93;;;7.97;57.51
35507;BME280;36461;52.018;21.036;2023-03-16T11:03:49;100818.52;;;8.03;56.33
35507;BME280;36461;52.018;21.036;2023-03-16T11:06:21;100830.70;;;7.94;55.87
35507;BME280;36461;52.018;21.036;2023-03-16T11:08:52;100830.52;;;7.71;54.92
35507;BME280;36461;52.018;21.036;2023-03-16T11:11:29;100831.08;;;7.40;55.36
35507;BME280;36461;52.018;21.036;2023-03-16T11:14:00;100833.02;;;7.19;55.41
35507;BME280;36461;52.018;21.036;2023-03-16T11:19:23;100825.95;;;7.37;55.31
35507;BME280;36461;52.018;21.036;2023-03-16T11:21:57;100818.10;;;7.59;55.36
35507;BME280;36461;52.018;21.036;2023-03-16T11:24:29;100820.77;;;7.78;55.25
35507;BME280;36461;52.018;21.036;2023-03-16T11:27:01;100814.43;;;7.88;54.58
35507;BME280;36461;52.018;21.036;2023-03-16T11:29:42;100817.44;;;7.96;54.96
35507;BME280;36461;52.018;21.036;2023-03-16T11:32:23;100821.73;;;7.95;54.36
35507;BME280;36461;52.018;21.036;2023-03-16T11:34:53;100823.14;;;7.80;53.98
35507;BME280;36461;52.018;21.036;2023-03-16T11:37:28;100825.45;;;7.64;53.89
35507;BME280;36461;52.018;21.036;2023-03-16T11:40:08;100827.26;;;7.56;53.85
35507;BME280;36461;52.018;21.036;2023-03-16T11:46:09;100825.89;;;7.56;53.41
35507;BME280;36461;52.018;21.036;2023-03-16T11:51:46;100819.80;;;7.87;53.76
35507;BME280;36461;52.018;21.036;2023-03-16T11:54:48;100822.99;;;7.92;53.66
35507;BME280;36461;52.018;21.036;2023-03-16T12:00:22;100827.67;;;7.65;52.78
35507;BME280;36461;52.018;21.036;2023-03-16T12:03:13;100822.64;;;7.68;53.06
35507;BME280;36461;52.018;21.036;2023-03-16T12:09:33;100825.68;;;7.85;52.02
35507;BME280;36461;52.018;21.036;2023-03-16T12:12:23;100833.71;;;7.89;51.81
35507;BME280;36461;52.018;21.036;2023-03-16T12:21:14;100834.13;;;7.71;51.57
35507;BME280;36461;52.018;21.036;2023-03-16T12:24:25;100834.98;;;7.72;52.45
35507;BME280;36461;52.018;21.036;2023-03-16T12:26:44;100831.20;;;7.84;52.55
35507;BME280;36461;52.018;21.036;2023-03-16T12:29:37;100833.70;;;7.90;52.72
35507;BME280;36461;52.018;21.036;2023-03-16T12:32:18;100838.18;;;8.03;52.60
35507;BME280;36461;52.018;21.036;2023-03-16T12:37:38;100839.83;;;8.19;52.03
35507;BME280;36461;52.018;21.036;2023-03-16T12:40:24;100840.04;;;8.17;51.44
35507;BME280;36461;52.018;21.036;2023-03-16T12:46:12;100837.99;;;8.27;50.91
35507;BME280;36461;52.018;21.036;2023-03-16T12:48:48;100837.39;;;8.32;50.83
35507;BME280;36461;52.018;21.036;2023-03-16T12:51:19;100841.13;;;8.36;50.71
35507;BME280;36461;52.018;21.036;2023-03-16T12:56:27;100839.27;;;8.22;50.50
35507;BME280;36461;52.018;21.036;2023-03-16T12:59:04;100847.92;;;8.20;50.66
35507;BME280;36461;52.018;21.036;2023-03-16T13:01:40;100847.55;;;8.11;50.44
35507;BME280;36461;52.018;21.036;2023-03-16T13:04:16;100845.38;;;8.06;50.23
35507;BME280;36461;52.018;21.036;2023-03-16T13:06:50;100848.36;;;8.02;50.32
35507;BME280;36461;52.018;21.036;2023-03-16T13:09:28;100848.73;;;8.00;50.69
35507;BME280;36461;52.018;21.036;2023-03-16T13:11:59;100851.77;;;8.04;50.69
35507;BME280;36461;52.018;21.036;2023-03-16T13:14:40;100852.27;;;8.06;50.60
35507;BME280;36461;52.018;21.036;2023-03-16T13:19:45;100846.06;;;8.18;50.42
35507;BME280;36461;52.018;21.036;2023-03-16T13:22:29;100848.26;;;8.09;50.51
35507;BME280;36461;52.018;21.036;2023-03-16T13:28:05;100850.42;;;7.89;50.54
35507;BME280;36461;52.018;21.036;2023-03-16T13:30:33;100852.66;;;7.77;50.82
35507;BME280;36461;52.018;21.036;2023-03-16T13:33:22;100852.17;;;7.75;50.76
35507;BME280;36461;52.018;21.036;2023-03-16T13:35:54;100853.08;;;7.84;51.07
35507;BME280;36461;52.018;21.036;2023-03-16T13:38:25;100854.80;;;7.97;50.88
35507;BME280;36461;52.018;21.036;2023-03-16T13:41:18;100855.72;;;8.06;50.48
35507;BME280;36461;52.018;21.036;2023-03-16T13:43:45;100853.38;;;8.13;50.13
35507;BME280;36461;52.018;21.036;2023-03-16T13:46:18;100848.41;;;8.23;50.33
35507;BME280;36461;52.018;21.036;2023-03-16T13:48:48;100849.13;;;8.32;50.12
35507;BME280;36461;52.018;21.036;2023-03-16T13:51:19;100850.81;;;8.34;49.97
35507;BME280;36461;52.018;21.036;2023-03-16T13:53:49;100851.83;;;8.36;50.24
35507;BME280;36461;52.018;21.036;2023-03-16T13:56:21;100851.08;;;8.39;50.26
35507;BME280;36461;52.018;21.036;2023-03-16T13:58:55;100849.10;;;8.45;50.30
35507;BME280;36461;52.018;21.036;2023-03-16T14:01:26;100849.77;;;8.49;50.06
35507;BME280;36461;52.018;21.036;2023-03-16T14:03:58;100849.98;;;8.46;49.92
35507;BME280;36461;52.018;21.036;2023-03-16T14:06:29;100846.83;;;8.48;49.75
35507;BME280;36461;52.018;21.036;2023-03-16T14:09:00;100843.31;;;8.52;49.26
35507;BME280;36461;52.018;21.036;2023-03-16T14:11:29;100844.95;;;8.47;48.82
35507;BME280;36461;52.018;21.036;2023-03-16T14:13:58;100843.30;;;8.41;48.84
35507;BME280;36461;52.018;21.036;2023-03-16T14:16:28;100845.19;;;8.42;48.91
35507;BME280;36461;52.018;21.036;2023-03-16T14:19:05;100846.66;;;8.48;48.59
35507;BME280;36461;52.018;21.036;2023-03-16T14:21:34;100846.91;;;8.54;48.56
35507;BME280;36461;52.018;21.036;2023-03-16T14:24:04;100848.39;;;8.60;48.73